Terminal Aerodrome Forecast
Issued by NWS

Home | Current Version | Previous Version | Text Only | Print | Product List | Glossary On
Versions: 1 2 3 4 5 6 7 8 9 10 11 12 13 14 15 16 17 18 19 20 21 22 23 24 25 26 27 28 29 30
000
FTUS45 KBOI 230520
TAFMYL
TAF
KMYL 230520Z 2306/2406 32005KT P6SM SCT080 BKN150
     FM231500 32008KT P6SM VCSH BKN080 OVC120
     FM231900 32008G18KT P6SM -SHRA OVC050
     FM240300 VRB05KT P6SM VCSH BKN070=

USA.gov is the U.S. government's official web portal to all federal, state and local government web resources and services.